Observations for VALLEY RAF, United Kingdom (EGOV)

EGOV 112150Z AUTO 14015KT 9999 BKN039/// 10/06 Q1017
EGOV 112050Z AUTO 15017KT 9999 OVC030/// 10/06 Q1017
EGOV 111950Z AUTO 15016KT 9999 FEW021/// OVC026/// 10/07 Q1017  
EGOV 111850Z AUTO 16016KT 9999 BKN020/// 10/07 Q1017
EGOV 111750Z 16017KT 9999 FEW024 OVC027 10/07 Q1017 BLU TEMPO SCT024 WHT
EGOV 111650Z 16016KT 9999 FEW024 BKN034 10/07 Q1018 BLU TEMPO SCT024 WHT
EGOV 111550Z 15014KT 9999 FEW019 OVC031 10/07 Q1018 BLU TEMPO SCT019 WHT
EGOV 111520Z 15016KT 9999 SCT019 OVC025 10/07 Q1018 WHT TEMPO FEW019 BKN025 BLU 
EGOV 111520Z 15016KT 9999 SCT019 OVC025 10/07 Q1018 WHT TEMPO FEW019 BKN025 BLU
EGOV 111450Z 16015KT 9999 FEW022 OVC029 10/07 Q1018 BLU TEMPO SCT022 WHT
EGOV 111350Z 16014KT 9999 BKN028 10/06 Q1019 BLU TEMPO SCT024 WHT   
EGOV 111250Z 15011KT 9999 BKN028 10/06 Q1020 BLU NOSIG  
EGOV 111150Z 15017KT 9999 FEW022 BKN033 10/06 Q1021 BLU TEMPO SCT022 WHT
EGOV 111050Z 16016KT 9999 FEW022 BKN025 10/07 Q1021 BLU TEMPO SCT022 WHT
EGOV 110950Z 17019KT 9999 FEW007 BKN018 10/09 Q1021 WHT TEMPO FEW018 BKN025 BLU 
EGOV 110850Z 16017KT 9999 FEW006 SCT008 BKN025 10/09 Q1021 GRN TEMPO FEW007 SCT017 WHT  
EGOV 110832Z 16018KT 9999 FEW006 SCT007 OVC025 10/09 Q1021 GRN TEMPO SCT006 YLO1
EGOV 110832Z 16018KT 9999 FEW006 SCT007 OVC025 10/09 Q1021 GRN TEMPO SCT006 YLO1
EGOV 110750Z 17017KT 9999 FEW010 OVC025 10/09 Q1021 BLU TEMPO SCT022 WHT
EGOV 110650Z 17015KT 9999 FEW024 OVC026 10/09 Q1021 BLU TEMPO SCT022 WHT
EGOV 110550Z AUTO 17016KT 9999 FEW011/// BKN023/// 10/09 Q1021  
EGOV 110450Z AUTO 16014KT 9000 BR BKN011/// BKN023/// 10/09 Q1022   
EGOV 110350Z AUTO 16016KT 9999 BKN011/// BKN026/// 10/09 Q1022  
EGOV 110250Z AUTO 17015KT 9000 BR SCT011/// BKN016/// 10/09 Q1023   
EGOV 110150Z AUTO 17015KT 9999 BKN005/// SCT017/// 10/09 Q1023  
EGOV 110050Z AUTO 16016KT 6000 BR OVC003/// 09/09 Q1024 RERA
EGOV 102350Z AUTO 16016KT 4200 HZ OVC006/// 10/09 Q1024 
EGOV 102250Z AUTO 16014KT 9999 BKN008/// 10/08 Q1025
EGOV 102150Z AUTO 16011KT 9999 SCT011/// BKN016/// 09/07 Q1025